首页
METAR-TAF:

METAR-TAF

机场 :

卡尔加里Springbank, 艾伯塔, 加拿大

纬度: 51-06N, 经度: 114-22W, 海拔: 1200米

当前天气观测

该预报发布于40分钟前的22:03 UTC
风速10节,风向东北
温度 -1°C
湿度 74%
气压 1011 hPa
能見度: 14.5公里
阴天层高于2300英尺

METAR: CYBW 072203Z AUTO 05010KT 9SM OVC023 M01/M05 A2985 RMK SLP163

时间: 16:43 (22:43 UTC)

预报

该预报发布于5小时和3分钟前的17:40 UTC
预报有效从07日的 18点(UTC)到 08日的 04点(UTC)
风速3节,风向多变
能見度: 10公里
多云层高于2000英尺
短暂存在
从 07日的 18点(UTC)到 07日的 21点(UTC)
散云层高于2000英尺
成为
从 07日的 18点(UTC)到 07日的 20点(UTC)
风速15节,风向东北,有时为25节阵风
从 07日的 2100点(UTC)
风速15节,风向东北,有时为25节阵风
能見度: 10公里
散云层高于2000英尺
阴天层高于4000英尺
小雪
短暂存在
从 07日的 21点(UTC)到 08日的 03点(UTC)
能見度: 3.2公里
散云层高于800英尺
阴天层高于2000英尺
小雪

TAF: CYBW 071740Z 0718/0804 VRB03KT P6SM BKN020 TEMPO 0718/0721 SCT020 BECMG 0718/0720 04015G25KT FM072100 04015G25KT P6SM -SN SCT020 OVC040 TEMPO 0721/0803 2SM -SN SCT008 OVC020 RMK FCST BASED ON AUTO OBS. NXT FCST BY 080000Z

超过4000个机场的气象观测和天气预报(METAR&TAF报告)。

可查询的气象台以黄色和红色小点在地图上表示。

将鼠标移到小点上方,可查看气象台名称。

然后点击查看天气观测和预报。

如需切换地图:点击带黑十字的绿色按钮放大地图;点击带横线的绿色按钮缩小地图;或者点击绿色箭头查看邻近地区的地图。


METAR-TAF: